createdAt,value
2023-03-29T00:01:35.933Z,62.22
2023-03-29T00:04:10.162Z,62.49
2023-03-29T00:06:42.355Z,62.25
2023-03-29T00:09:14.323Z,62.35
2023-03-29T00:11:46.699Z,62.64
2023-03-29T00:14:19.079Z,62.56
2023-03-29T00:16:51.596Z,62.79
2023-03-29T00:19:24.192Z,62.68
2023-03-29T00:21:56.241Z,62.70
2023-03-29T00:24:28.641Z,62.64
2023-03-29T00:27:01.095Z,63.09
2023-03-29T00:29:33.324Z,62.90
2023-03-29T00:32:06.515Z,63.02
2023-03-29T00:34:38.634Z,63.27
2023-03-29T00:37:10.826Z,62.98
2023-03-29T00:39:44.086Z,63.58
2023-03-29T00:42:18.017Z,63.72
2023-03-29T00:45:04.005Z,63.54
2023-03-29T00:47:41.698Z,63.53
2023-03-29T00:50:17.366Z,63.73
2023-03-29T00:52:54.867Z,63.71
2023-03-29T00:55:31.807Z,63.92
2023-03-29T00:58:05.923Z,64.07
2023-03-29T01:00:43.378Z,63.86
2023-03-29T01:03:24.882Z,64.24
2023-03-29T01:06:01.827Z,64.35
2023-03-29T01:08:37.606Z,64.24
2023-03-29T01:11:16.235Z,64.42
2023-03-29T01:13:58.170Z,64.54
2023-03-29T01:16:31.485Z,64.87
2023-03-29T01:19:05.498Z,65.26
2023-03-29T01:21:43.853Z,65.16
2023-03-29T01:24:42.020Z,65.10
2023-03-29T01:27:18.329Z,65.37
2023-03-29T01:29:57.918Z,65.35
2023-03-29T01:32:35.943Z,65.36
2023-03-29T01:35:14.495Z,65.48
2023-03-29T01:37:53.012Z,65.65
2023-03-29T01:40:27.311Z,65.69
2023-03-29T01:43:12.386Z,65.76
2023-03-29T01:45:49.182Z,66.00
2023-03-29T01:48:26.276Z,66.37
2023-03-29T01:51:04.632Z,66.48
2023-03-29T01:53:42.096Z,66.67
2023-03-29T01:56:17.963Z,66.80
2023-03-29T01:58:54.809Z,66.81
2023-03-29T02:01:30.106Z,67.11
2023-03-29T02:04:05.356Z,67.21
2023-03-29T02:06:39.732Z,67.37
2023-03-29T02:09:12.694Z,67.58
2023-03-29T02:11:47.552Z,67.51
2023-03-29T02:14:20.134Z,67.38
2023-03-29T02:16:52.259Z,67.07
2023-03-29T02:19:28.109Z,67.32
2023-03-29T02:22:06.963Z,67.47
2023-03-29T02:24:40.853Z,67.52
2023-03-29T02:27:13.719Z,67.77
2023-03-29T02:29:48.047Z,67.59
2023-03-29T02:32:26.606Z,68.20
2023-03-29T02:35:08.386Z,68.45
2023-03-29T02:37:42.243Z,68.58
2023-03-29T02:40:17.585Z,68.78
2023-03-29T02:42:51.458Z,68.52
2023-03-29T02:45:25.293Z,68.63
2023-03-29T02:48:02.192Z,68.68
2023-03-29T02:50:39.348Z,68.67
2023-03-29T02:53:15.427Z,68.56
2023-03-29T02:55:48.716Z,68.70
2023-03-29T02:58:28.684Z,68.51
2023-03-29T03:01:03.537Z,68.63
2023-03-29T03:03:36.873Z,68.61
2023-03-29T03:06:09.465Z,68.63
2023-03-29T03:08:42.116Z,68.61
2023-03-29T03:11:15.358Z,68.55
2023-03-29T03:13:47.836Z,68.52
2023-03-29T03:16:19.820Z,68.62
2023-03-29T03:18:52.540Z,68.48
2023-03-29T03:21:28.258Z,68.70
2023-03-29T03:24:00.320Z,68.69
2023-03-29T03:26:32.736Z,68.51
2023-03-29T03:29:05.501Z,68.63
2023-03-29T03:31:56.232Z,68.59
2023-03-29T03:35:00.658Z,68.78
2023-03-29T03:37:33.063Z,68.91
2023-03-29T03:40:05.809Z,69.00
2023-03-29T03:42:38.314Z,68.98
2023-03-29T03:45:12.302Z,68.86
2023-03-29T03:48:00.336Z,68.92
2023-03-29T03:50:51.419Z,69.14
2023-03-29T03:53:24.379Z,69.13
2023-03-29T03:56:14.956Z,69.11
2023-03-29T03:59:03.362Z,69.26
2023-03-29T04:01:43.508Z,69.38
2023-03-29T04:04:24.842Z,69.65
2023-03-29T04:07:14.435Z,69.79
2023-03-29T04:10:11.324Z,69.98
2023-03-29T04:13:06.510Z,70.05
2023-03-29T04:15:40.191Z,69.83
2023-03-29T04:18:13.366Z,69.94
2023-03-29T04:20:52.566Z,69.97
2023-03-29T04:23:25.350Z,70.02
2023-03-29T04:25:58.203Z,70.03
2023-03-29T04:28:57.152Z,70.16
2023-03-29T04:31:38.401Z,70.18
2023-03-29T04:34:21.756Z,70.43
2023-03-29T04:36:54.840Z,70.56
2023-03-29T04:39:34.365Z,70.95
2023-03-29T04:42:09.603Z,71.08
2023-03-29T04:44:43.725Z,71.11
2023-03-29T04:47:16.461Z,71.28
2023-03-29T04:49:59.094Z,71.19
2023-03-29T04:52:43.203Z,71.42
2023-03-29T04:55:15.642Z,71.55
2023-03-29T04:57:55.562Z,71.73
2023-03-29T05:00:39.175Z,71.84
2023-03-29T05:03:14.633Z,72.19
2023-03-29T05:06:06.765Z,72.12
2023-03-29T05:08:40.388Z,72.29
2023-03-29T05:11:25.413Z,72.58
2023-03-29T05:14:02.362Z,72.95
2023-03-29T05:16:38.184Z,73.10
2023-03-29T05:19:13.922Z,73.35
2023-03-29T05:21:51.036Z,73.56
2023-03-29T05:24:25.970Z,73.56
2023-03-29T05:26:58.396Z,73.76
2023-03-29T05:29:32.868Z,73.37
2023-03-29T05:32:21.553Z,73.59
2023-03-29T05:34:54.049Z,73.36
2023-03-29T05:37:33.614Z,73.21
2023-03-29T05:40:10.566Z,73.48
2023-03-29T05:42:59.584Z,73.29
2023-03-29T05:45:33.632Z,73.06
2023-03-29T05:48:06.782Z,73.18
2023-03-29T05:50:39.685Z,73.20
2023-03-29T05:53:12.536Z,73.12
2023-03-29T05:55:46.720Z,72.83
2023-03-29T05:58:20.336Z,72.51
2023-03-29T06:00:53.743Z,72.43
2023-03-29T06:03:39.342Z,72.41
2023-03-29T06:06:16.571Z,72.25
2023-03-29T06:08:49.068Z,71.72
2023-03-29T06:11:29.368Z,71.61
2023-03-29T06:14:23.125Z,71.32
2023-03-29T06:16:59.185Z,72.32
2023-03-29T06:19:31.887Z,72.95
2023-03-29T06:22:04.375Z,73.37
2023-03-29T06:24:38.114Z,72.72
2023-03-29T06:27:15.597Z,70.98
2023-03-29T06:29:48.557Z,70.39
2023-03-29T06:32:22.198Z,69.60
2023-03-29T06:35:09.202Z,67.79
2023-03-29T06:37:49.614Z,65.26
2023-03-29T06:40:27.394Z,63.53
2023-03-29T06:43:00.518Z,62.14
2023-03-29T06:46:12.346Z,61.55
2023-03-29T06:48:58.592Z,55.78
2023-03-29T06:51:37.550Z,56.15
2023-03-29T06:54:09.866Z,56.76
2023-03-29T06:56:44.195Z,54.84
2023-03-29T06:59:20.681Z,50.19
2023-03-29T07:02:15.652Z,47.20
2023-03-29T07:04:54.440Z,48.41
2023-03-29T07:07:53.506Z,49.85
2023-03-29T07:10:45.709Z,49.07
2023-03-29T07:13:42.501Z,49.74
2023-03-29T07:16:16.384Z,48.13
2023-03-29T07:19:11.091Z,49.46
2023-03-29T07:21:59.762Z,47.74
2023-03-29T07:24:53.637Z,45.68
2023-03-29T07:27:27.596Z,45.86
2023-03-29T07:30:07.081Z,45.93
2023-03-29T07:32:45.031Z,47.41
2023-03-29T07:35:32.925Z,44.40
2023-03-29T07:38:09.088Z,45.19
2023-03-29T07:40:42.269Z,42.75
2023-03-29T07:43:36.015Z,42.00
2023-03-29T07:46:13.047Z,42.61
2023-03-29T07:48:48.783Z,45.88
2023-03-29T07:51:38.202Z,47.97
2023-03-29T07:54:22.866Z,44.88
2023-03-29T07:57:09.835Z,43.68
2023-03-29T07:59:50.557Z,43.40
2023-03-29T08:02:27.286Z,42.40
2023-03-29T08:05:05.047Z,45.98
2023-03-29T08:08:03.526Z,44.64
2023-03-29T08:10:57.195Z,41.49
2023-03-29T08:13:39.911Z,38.83
2023-03-29T08:16:38.095Z,39.22
2023-03-29T08:19:15.220Z,41.22
2023-03-29T08:22:02.794Z,39.60
2023-03-29T08:24:43.658Z,37.79
2023-03-29T08:27:16.288Z,37.40
2023-03-29T08:29:49.046Z,34.42
2023-03-29T08:32:25.045Z,36.45
2023-03-29T08:34:57.757Z,35.23
2023-03-29T08:37:43.677Z,34.02
2023-03-29T08:40:24.307Z,32.87
2023-03-29T08:43:20.008Z,35.99
2023-03-29T08:46:26.299Z,33.06
2023-03-29T08:49:07.873Z,32.69
2023-03-29T08:51:46.480Z,35.23
2023-03-29T08:54:25.124Z,34.02
2023-03-29T08:57:24.165Z,31.92
2023-03-29T09:00:04.671Z,34.85
2023-03-29T09:02:38.244Z,33.00
2023-03-29T09:05:25.821Z,33.61
2023-03-29T09:08:20.887Z,32.11
2023-03-29T09:11:06.818Z,34.54
2023-03-29T09:13:47.561Z,32.90
2023-03-29T09:16:28.223Z,32.55
2023-03-29T09:19:20.048Z,32.43
2023-03-29T09:22:04.228Z,30.09
2023-03-29T09:24:50.426Z,30.33
2023-03-29T09:27:32.336Z,32.37
2023-03-29T09:30:30.757Z,29.41
2023-03-29T09:33:13.121Z,27.67
2023-03-29T09:36:09.978Z,27.40
2023-03-29T09:38:45.900Z,27.68
2023-03-29T09:41:24.679Z,28.49
2023-03-29T09:43:59.643Z,28.37
2023-03-29T09:46:39.273Z,26.92
2023-03-29T09:49:17.690Z,25.32
2023-03-29T09:51:52.779Z,24.38
2023-03-29T09:54:25.444Z,26.53
2023-03-29T09:57:18.930Z,25.46
2023-03-29T09:59:53.526Z,26.85
2023-03-29T10:02:26.364Z,25.03
2023-03-29T10:05:00.979Z,25.24
2023-03-29T10:07:44.738Z,23.34
2023-03-29T10:10:24.106Z,24.19
2023-03-29T10:13:00.981Z,24.21
2023-03-29T10:15:33.400Z,23.49
2023-03-29T10:18:11.281Z,24.50
2023-03-29T10:20:43.553Z,24.23
2023-03-29T10:23:21.221Z,25.46
2023-03-29T10:25:53.397Z,24.32
2023-03-29T10:28:28.040Z,25.06
2023-03-29T10:31:03.955Z,24.92
2023-03-29T10:33:38.320Z,25.10
2023-03-29T10:36:15.468Z,25.49
2023-03-29T10:38:47.899Z,25.58
2023-03-29T10:41:21.775Z,26.01
2023-03-29T10:43:54.575Z,25.72
2023-03-29T10:46:31.112Z,26.41
2023-03-29T10:49:10.057Z,25.54
2023-03-29T10:51:49.368Z,25.72
2023-03-29T10:54:24.821Z,26.24
2023-03-29T10:56:59.715Z,26.00
2023-03-29T10:59:36.089Z,26.63
2023-03-29T11:02:29.815Z,26.68
2023-03-29T11:05:17.186Z,25.01
2023-03-29T11:08:03.119Z,25.29
2023-03-29T11:10:45.209Z,26.57
2023-03-29T11:13:28.755Z,26.11
2023-03-29T11:16:13.665Z,26.09
2023-03-29T11:19:06.822Z,25.24
2023-03-29T11:21:49.966Z,24.81
2023-03-29T11:24:38.304Z,25.31
2023-03-29T11:27:19.444Z,26.06
2023-03-29T11:30:02.335Z,25.98
2023-03-29T11:32:42.420Z,27.19
2023-03-29T11:35:34.251Z,27.03
2023-03-29T11:38:14.870Z,27.53
2023-03-29T11:40:51.504Z,27.70
2023-03-29T11:43:27.938Z,28.50
2023-03-29T11:46:03.696Z,29.40
2023-03-29T11:48:41.574Z,28.13
2023-03-29T11:51:23.484Z,28.14
2023-03-29T11:54:04.397Z,28.97
2023-03-29T11:56:43.829Z,29.81
2023-03-29T11:59:23.040Z,30.42
2023-03-29T12:02:01.205Z,30.13
2023-03-29T12:04:38.008Z,29.51
2023-03-29T12:07:18.628Z,29.70
2023-03-29T12:09:52.855Z,30.32
2023-03-29T12:12:29.769Z,30.81
2023-03-29T12:15:07.630Z,30.90
2023-03-29T12:17:44.659Z,29.54
2023-03-29T12:20:23.418Z,29.10
2023-03-29T12:22:58.768Z,29.42
2023-03-29T12:25:42.519Z,29.49
2023-03-29T12:28:33.285Z,29.44
2023-03-29T12:31:08.075Z,29.50
2023-03-29T12:33:59.051Z,28.83
2023-03-29T12:37:19.358Z,29.44
2023-03-29T12:39:53.045Z,29.42
2023-03-29T12:42:53.219Z,29.66
2023-03-29T12:45:48.603Z,29.85
2023-03-29T12:48:24.873Z,29.16
2023-03-29T12:51:03.222Z,29.84
2023-03-29T12:53:37.940Z,30.15
2023-03-29T12:56:18.832Z,28.93
2023-03-29T12:59:07.557Z,29.26
2023-03-29T13:01:41.418Z,29.83
2023-03-29T13:04:20.243Z,28.83
2023-03-29T13:07:07.149Z,28.74
2023-03-29T13:09:51.630Z,28.54
2023-03-29T13:12:32.906Z,28.55
2023-03-29T13:15:09.418Z,29.03
2023-03-29T13:17:49.893Z,29.09
2023-03-29T13:20:39.930Z,29.26
2023-03-29T13:23:28.970Z,29.60
2023-03-29T13:26:21.436Z,29.59
2023-03-29T13:29:12.016Z,29.72
2023-03-29T13:31:51.576Z,30.60
2023-03-29T13:37:53.178Z,30.14
2023-03-29T13:40:34.821Z,30.29
2023-03-29T13:46:37.353Z,30.59
2023-03-29T13:52:27.171Z,30.25
2023-03-29T13:55:01.400Z,30.66
2023-03-29T13:57:41.369Z,30.97
2023-03-29T14:00:20.393Z,31.05
2023-03-29T14:02:56.518Z,31.04
2023-03-29T14:05:32.892Z,31.40
2023-03-29T14:08:11.511Z,31.64
2023-03-29T14:10:45.868Z,31.78
2023-03-29T14:13:22.450Z,32.01
2023-03-29T14:16:04.577Z,32.28
2023-03-29T14:18:41.530Z,32.03
2023-03-29T14:21:15.808Z,32.39
2023-03-29T14:23:54.909Z,32.29
2023-03-29T14:26:32.644Z,32.88
2023-03-29T14:29:05.469Z,32.38
2023-03-29T14:31:40.206Z,32.34
2023-03-29T14:34:16.719Z,32.77
2023-03-29T14:36:50.346Z,32.79
2023-03-29T14:39:24.384Z,32.81
2023-03-29T14:41:58.472Z,32.82
2023-03-29T14:44:33.203Z,33.13
2023-03-29T14:47:05.843Z,32.98
2023-03-29T14:49:38.884Z,32.15
2023-03-29T14:52:13.306Z,32.45
2023-03-29T14:54:48.278Z,32.21
2023-03-29T14:57:24.385Z,32.63
2023-03-29T15:00:13.503Z,33.10
2023-03-29T15:02:54.551Z,33.52
2023-03-29T15:05:34.149Z,33.65
2023-03-29T15:08:09.992Z,33.74
2023-03-29T15:10:44.754Z,34.01
2023-03-29T15:13:24.476Z,34.02
2023-03-29T15:16:01.826Z,34.14
2023-03-29T15:18:39.987Z,34.24
2023-03-29T15:21:16.322Z,34.29
2023-03-29T15:23:54.913Z,34.13
2023-03-29T15:26:31.178Z,34.52
2023-03-29T15:29:12.469Z,34.59
2023-03-29T15:31:54.857Z,34.69
2023-03-29T15:34:30.963Z,34.69
2023-03-29T15:37:04.192Z,34.76
2023-03-29T15:39:36.707Z,34.69
2023-03-29T15:42:09.931Z,34.60
2023-03-29T15:44:41.972Z,34.48
2023-03-29T15:47:14.735Z,34.61
2023-03-29T15:49:47.615Z,34.94
2023-03-29T15:52:19.921Z,35.08
2023-03-29T15:54:52.012Z,35.01
2023-03-29T15:57:24.211Z,35.21
2023-03-29T15:59:56.584Z,35.42
2023-03-29T16:02:28.814Z,35.60
2023-03-29T16:05:01.762Z,35.59
2023-03-29T16:07:33.813Z,35.96
2023-03-29T16:10:06.549Z,35.85
2023-03-29T16:12:39.430Z,36.10
2023-03-29T16:15:20.442Z,36.12
2023-03-29T16:17:55.462Z,36.62
2023-03-29T16:20:27.818Z,36.38
2023-03-29T16:22:59.942Z,36.62
2023-03-29T16:25:32.223Z,36.61
2023-03-29T16:28:04.949Z,36.90
2023-03-29T16:30:38.459Z,36.96
2023-03-29T16:33:14.311Z,37.17
2023-03-29T16:35:46.820Z,37.28
2023-03-29T16:38:18.883Z,37.46
2023-03-29T16:40:51.334Z,37.96
2023-03-29T16:43:23.995Z,38.09
2023-03-29T16:45:56.990Z,38.23
2023-03-29T16:48:29.124Z,38.35
2023-03-29T16:51:01.207Z,38.31
2023-03-29T16:53:34.474Z,38.45
2023-03-29T16:56:07.878Z,38.60
2023-03-29T16:58:41.501Z,38.81
2023-03-29T17:01:16.064Z,39.02
2023-03-29T17:03:48.826Z,39.51
2023-03-29T17:06:22.017Z,39.62
2023-03-29T17:08:54.122Z,39.77
2023-03-29T17:11:26.993Z,40.03
2023-03-29T17:13:59.132Z,40.55
2023-03-29T17:16:31.444Z,40.93
2023-03-29T17:19:03.562Z,40.91
2023-03-29T17:21:35.610Z,41.14
2023-03-29T17:24:09.877Z,41.22
2023-03-29T17:26:43.812Z,41.77
2023-03-29T17:29:19.987Z,42.06
2023-03-29T17:31:52.101Z,42.09
2023-03-29T17:34:29.128Z,42.35
2023-03-29T17:37:03.820Z,42.62
2023-03-29T17:39:37.634Z,42.92
2023-03-29T17:42:10.429Z,43.05
2023-03-29T17:44:42.548Z,43.48
2023-03-29T17:47:14.620Z,43.38
2023-03-29T17:49:46.586Z,43.78
2023-03-29T17:52:19.385Z,43.99
2023-03-29T17:54:51.723Z,44.03
2023-03-29T17:57:24.352Z,44.34
2023-03-29T17:59:56.994Z,44.34
2023-03-29T18:02:29.527Z,44.69
2023-03-29T18:05:04.634Z,44.68
2023-03-29T18:07:37.624Z,45.01
2023-03-29T18:10:13.859Z,45.05
2023-03-29T18:12:46.705Z,44.90
2023-03-29T18:15:19.199Z,44.99
2023-03-29T18:17:51.627Z,44.93
2023-03-29T18:20:24.449Z,45.11
2023-03-29T18:22:57.296Z,45.36
2023-03-29T18:25:32.808Z,45.68
2023-03-29T18:28:05.189Z,45.85
2023-03-29T18:30:37.636Z,45.83
2023-03-29T18:33:10.026Z,45.95
2023-03-29T18:35:42.490Z,46.28
2023-03-29T18:38:15.304Z,46.42
2023-03-29T18:40:48.588Z,46.60
2023-03-29T18:43:21.210Z,46.94
2023-03-29T18:45:53.280Z,46.97
2023-03-29T18:48:25.403Z,47.08
2023-03-29T18:50:59.505Z,47.26
2023-03-29T18:53:31.739Z,47.66
2023-03-29T18:56:04.827Z,47.49
2023-03-29T18:58:38.207Z,47.63
2023-03-29T19:01:11.062Z,47.92
2023-03-29T19:03:43.757Z,48.01
2023-03-29T19:06:19.304Z,48.14
2023-03-29T19:08:51.430Z,48.33
2023-03-29T19:11:23.573Z,48.25
2023-03-29T19:13:58.316Z,48.80
2023-03-29T19:16:30.401Z,48.94
2023-03-29T19:19:02.831Z,49.13
2023-03-29T19:21:35.077Z,49.25
2023-03-29T19:24:08.178Z,49.30
2023-03-29T19:26:40.204Z,49.19
2023-03-29T19:29:12.689Z,49.59
2023-03-29T19:31:44.743Z,49.54
2023-03-29T19:34:19.754Z,50.06
2023-03-29T19:36:53.706Z,50.20
2023-03-29T19:39:29.382Z,50.33
2023-03-29T19:42:01.456Z,50.21
2023-03-29T19:44:33.773Z,50.42
2023-03-29T19:47:06.597Z,50.63
2023-03-29T19:49:39.701Z,50.65
2023-03-29T19:52:11.882Z,50.80
2023-03-29T19:54:45.189Z,50.68
2023-03-29T19:57:19.915Z,50.78
2023-03-29T19:59:53.142Z,51.22
2023-03-29T20:02:25.861Z,51.20
2023-03-29T20:04:57.918Z,51.35
2023-03-29T20:07:30.219Z,51.54
2023-03-29T20:10:02.191Z,51.64
2023-03-29T20:12:34.335Z,51.48
2023-03-29T20:15:07.758Z,51.67
2023-03-29T20:17:40.973Z,51.85
2023-03-29T20:20:14.204Z,51.94
2023-03-29T20:22:46.706Z,52.12
2023-03-29T20:25:18.787Z,52.27
2023-03-29T20:27:51.634Z,52.08
2023-03-29T20:30:24.276Z,52.20
2023-03-29T20:32:56.341Z,52.20
2023-03-29T20:35:28.737Z,52.31
2023-03-29T20:38:00.857Z,52.43
2023-03-29T20:40:34.612Z,52.39
2023-03-29T20:43:07.534Z,52.54
2023-03-29T20:45:52.116Z,52.35
2023-03-29T20:48:31.327Z,52.60
2023-03-29T20:51:10.215Z,52.56
2023-03-29T20:53:43.570Z,52.62
2023-03-29T20:56:19.079Z,52.71
2023-03-29T20:58:55.860Z,53.05
2023-03-29T21:01:29.508Z,52.87
2023-03-29T21:04:01.686Z,52.93
2023-03-29T21:06:33.801Z,53.14
2023-03-29T21:09:06.863Z,53.21
2023-03-29T21:11:39.319Z,53.32
2023-03-29T21:14:11.362Z,53.50
2023-03-29T21:16:43.873Z,53.60
2023-03-29T21:19:16.773Z,54.05
2023-03-29T21:21:53.457Z,54.48
2023-03-29T21:24:25.528Z,54.31
2023-03-29T21:26:57.553Z,54.28
2023-03-29T21:29:29.731Z,55.28
2023-03-29T21:32:01.876Z,54.71
2023-03-29T21:34:34.084Z,55.08
2023-03-29T21:37:07.694Z,55.68
2023-03-29T21:39:44.520Z,55.35
2023-03-29T21:42:16.508Z,55.69
2023-03-29T21:44:48.573Z,56.41
2023-03-29T21:47:20.909Z,56.01
2023-03-29T21:49:53.122Z,56.58
2023-03-29T21:52:25.565Z,56.21
2023-03-29T21:54:57.869Z,56.67
2023-03-29T21:57:30.057Z,56.28
2023-03-29T22:00:02.739Z,56.58
2023-03-29T22:02:37.900Z,56.74
2023-03-29T22:05:11.061Z,56.63
2023-03-29T22:07:43.245Z,56.41
2023-03-29T22:10:22.813Z,57.10
2023-03-29T22:12:56.256Z,57.10
2023-03-29T22:15:29.429Z,57.60
2023-03-29T22:18:01.457Z,57.36
2023-03-29T22:20:35.790Z,57.34
2023-03-29T22:23:07.937Z,57.30
2023-03-29T22:25:40.740Z,57.57
2023-03-29T22:28:13.937Z,57.85
2023-03-29T22:30:46.157Z,58.48
2023-03-29T22:33:18.595Z,58.02
2023-03-29T22:35:50.854Z,57.83
2023-03-29T22:38:26.237Z,58.49
2023-03-29T22:40:58.426Z,58.30
2023-03-29T22:43:30.611Z,58.44
2023-03-29T22:46:02.724Z,58.37
2023-03-29T22:48:35.328Z,58.63
2023-03-29T22:51:08.203Z,59.09
2023-03-29T22:53:40.252Z,58.48
2023-03-29T22:56:13.403Z,59.26
2023-03-29T22:58:46.192Z,59.00
2023-03-29T23:01:18.390Z,58.95
2023-03-29T23:03:53.546Z,59.60
2023-03-29T23:06:25.586Z,59.37
2023-03-29T23:08:57.675Z,59.57
2023-03-29T23:11:29.795Z,59.60
2023-03-29T23:14:04.130Z,59.39
2023-03-29T23:16:37.042Z,59.55
2023-03-29T23:19:09.112Z,59.70
2023-03-29T23:21:41.165Z,59.64
2023-03-29T23:24:13.398Z,60.95
2023-03-29T23:26:45.572Z,60.77
2023-03-29T23:29:17.604Z,60.38
2023-03-29T23:31:50.332Z,60.34
2023-03-29T23:34:22.820Z,61.27
2023-03-29T23:36:54.853Z,60.81
2023-03-29T23:39:27.127Z,61.22
2023-03-29T23:42:00.670Z,61.50
2023-03-29T23:44:33.182Z,60.90
2023-03-29T23:47:07.273Z,61.90
2023-03-29T23:49:39.891Z,61.30
2023-03-29T23:52:12.004Z,61.47
2023-03-29T23:54:44.349Z,61.40
2023-03-29T23:57:19.642Z,62.07
2023-03-29T23:59:52.679Z,62.10
